Time;durP1;ratioP1;P1;durP2;ratioP2;P2;SDS_P1;SDS_P2;PMS_P1;PMS_P2;Temp;Humidity;BMP_temperature;BMP_pressure;BME280_temperature;BME280_humidity;BME280_pressure;Samples;Min_cycle;Max_cycle;Signal;HPM_P1;HPM_P2
2022/05/20 00:00:33;;;;;;;6.03;4.10;;;14.20;99.90;;;;;;5036184;28;20045;-71
2022/05/20 00:02:59;;;;;;;4.43;4.03;;;15.00;99.90;;;;;;5032715;28;20091;-72
2022/05/20 00:05:27;;;;;;;5.75;3.92;;;14.30;99.90;;;;;;5036529;28;20140;-71
2022/05/20 00:07:55;;;;;;;4.28;3.88;;;14.30;99.90;;;;;;5039110;28;20053;-72
2022/05/20 00:10:22;;;;;;;4.47;3.92;;;14.20;99.90;;;;;;5042020;28;20056;-72
2022/05/20 00:12:48;;;;;;;5.38;4.30;;;14.30;99.90;;;;;;5040075;28;20123;-72
2022/05/20 00:15:18;;;;;;;6.95;4.80;;;14.20;99.90;;;;;;5023377;28;20072;-71
2022/05/20 00:17:43;;;;;;;5.13;3.97;;;14.30;99.90;;;;;;5041136;28;20550;-72
2022/05/20 00:20:11;;;;;;;6.32;4.38;;;14.30;99.90;;;;;;5041033;28;20048;-72
2022/05/20 00:22:38;;;;;;;5.20;4.18;;;14.20;99.90;;;;;;5041317;28;20911;-72
2022/05/20 00:27:49;;;;;;;8.15;4.00;;;14.20;99.90;;;;;;5041787;28;20067;-71
2022/05/20 00:30:15;;;;;;;4.22;3.83;;;14.30;99.90;;;;;;5041692;28;20049;-71
2022/05/20 00:32:41;;;;;;;7.43;4.47;;;14.30;99.90;;;;;;5041648;28;20091;-71
2022/05/20 00:35:09;;;;;;;6.50;4.30;;;14.20;99.90;;;;;;5041763;28;20114;-71
2022/05/20 00:37:34;;;;;;;4.05;3.72;;;14.20;99.90;;;;;;5041887;28;20052;-71
2022/05/20 00:40:00;;;;;;;7.07;4.25;;;14.20;99.90;;;;;;5041412;28;20775;-71
2022/05/20 00:42:26;;;;;;;6.72;4.22;;;14.30;99.90;;;;;;5040994;28;20607;-72
2022/05/20 00:44:52;;;;;;;6.45;3.63;;;14.30;99.90;;;;;;5040327;28;20052;-71
2022/05/20 00:47:17;;;;;;;5.85;4.00;;;14.30;99.90;;;;;;5034280;28;20158;-72
2022/05/20 00:49:49;;;;;;;5.03;4.40;;;14.30;99.90;;;;;;5040622;28;20053;-72
2022/05/20 00:52:20;;;;;;;6.15;4.70;;;14.30;99.90;;;;;;5035490;28;20214;-72
2022/05/20 00:54:49;;;;;;;6.15;5.45;;;14.30;99.90;;;;;;5035607;28;20131;-72
2022/05/20 00:58:00;;;;;;;4.90;4.40;;;14.20;99.90;;;;;;5041593;28;20057;-72
2022/05/20 01:00:30;;;;;;;9.38;6.63;;;14.20;99.90;;;;;;4939093;29;20090;-71
2022/05/20 01:03:00;;;;;;;5.65;4.32;;;14.20;99.90;;;;;;5017174;28;20060;-72
2022/05/20 01:05:33;;;;;;;7.13;5.10;;;14.20;99.90;;;;;;5034960;28;20082;-72
2022/05/20 01:08:00;;;;;;;;;;;14.30;99.90;;;;;;5041551;28;20049;-72
2022/05/20 01:10:25;;;;;;;6.55;4.45;;;14.20;99.90;;;;;;5041302;28;19924;-71
2022/05/20 01:12:53;;;;;;;7.57;5.03;;;14.20;99.90;;;;;;5041725;28;20686;-72
2022/05/20 01:15:19;;;;;;;6.32;4.43;;;14.20;99.90;;;;;;5041243;28;20044;-71
2022/05/20 01:17:47;;;;;;;6.32;4.40;;;14.10;99.90;;;;;;5034933;28;20083;-71
2022/05/20 01:20:18;;;;;;;6.80;4.47;;;14.10;99.90;;;;;;5040671;28;20041;-71
2022/05/20 01:22:53;;;;;;;9.57;5.35;;;14.10;99.90;;;;;;5040935;28;20053;-72
2022/05/20 01:25:20;;;;;;;6.70;5.28;;;14.00;99.90;;;;;;5039807;28;20504;-71
2022/05/20 01:27:46;;;;;;;5.75;5.22;;;14.00;99.90;;;;;;5037922;28;20049;-71
2022/05/20 01:30:14;;;;;;;6.90;5.22;;;13.90;99.90;;;;;;5039950;28;20076;-71
2022/05/20 01:32:41;;;;;;;9.60;4.80;;;13.80;99.90;;;;;;5038471;28;20131;-71
2022/05/20 01:35:12;;;;;;;6.28;4.97;;;13.80;99.90;;;;;;5039921;28;20053;-72
2022/05/20 01:37:38;;;;;;;5.07;3.72;;;13.80;99.90;;;;;;5040604;28;20089;-72
2022/05/20 01:40:04;;;;;;;7.95;4.97;;;13.70;99.90;;;;;;5040510;28;20124;-71
2022/05/20 01:42:38;;;;;;;5.82;5.25;;;13.60;99.90;;;;;;5040152;28;20053;-71
2022/05/20 01:45:11;;;;;;;8.63;5.80;;;13.60;99.90;;;;;;5040198;28;20175;-71
2022/05/20 01:48:09;;;;;;;5.23;4.43;;;13.60;99.90;;;;;;5039899;28;20614;-72
2022/05/20 01:50:49;;;;;;;7.68;5.18;;;13.60;99.90;;;;;;5033820;28;20064;-71
2022/05/20 01:53:26;;;;;;;5.18;4.47;;;13.60;99.90;;;;;;5034900;28;20859;-71
2022/05/20 01:56:07;;;;;;;4.45;3.42;;;13.60;99.90;;;;;;5039041;28;20048;-72
2022/05/20 01:58:38;;;;;;;7.05;6.05;;;13.50;99.90;;;;;;5019818;28;20464;-71
2022/05/20 02:01:10;;;;;;;5.90;4.32;;;13.50;99.90;;;;;;5040023;28;20439;-71
2022/05/20 02:03:46;;;;;;;5.68;4.57;;;13.50;99.90;;;;;;5040143;28;20048;-71
2022/05/20 02:06:33;;;;;;;6.00;5.40;;;13.50;99.90;;;;;;5033777;28;20041;-72
2022/05/20 02:09:10;;;;;;;5.70;4.25;;;13.40;99.90;;;;;;5017844;28;20139;-72
2022/05/20 02:11:46;;;;;;;5.93;4.80;;;13.40;99.90;;;;;;5039899;28;20049;-72
2022/05/20 02:14:35;;;;;;;7.57;5.88;;;13.30;99.90;;;;;;5040290;28;20053;-72
2022/05/20 02:17:08;;;;;;;5.88;4.88;;;13.30;99.90;;;;;;5034806;28;20044;-72
2022/05/20 02:19:44;;;;;;;5.80;4.93;;;13.20;99.90;;;;;;5021706;28;20382;-72
2022/05/20 02:22:16;;;;;;;6.85;4.95;;;13.20;99.90;;;;;;5040157;28;20141;-72
2022/05/20 02:24:43;;;;;;;5.55;5.05;;;13.10;99.90;;;;;;5039387;28;20567;-71
2022/05/20 02:27:16;;;;;;;4.97;4.47;;;13.10;99.90;;;;;;5021618;28;20739;-71
2022/05/20 02:29:47;;;;;;;;;;;13.10;99.90;;;;;;5038449;28;20049;-71
2022/05/20 02:32:25;;;;;;;7.45;5.55;;;13.00;99.90;;;;;;5038858;28;20083;-72
2022/05/20 02:34:52;;;;;;;6.93;6.20;;;12.90;99.90;;;;;;5039589;28;20049;-71
2022/05/20 02:37:23;;;;;;;7.20;5.97;;;12.90;99.90;;;;;;5034026;28;20053;-71
2022/05/20 02:39:50;;;;;;;7.95;5.60;;;12.90;99.90;;;;;;5037945;28;20128;-71
2022/05/20 02:42:16;;;;;;;8.25;6.00;;;12.80;99.90;;;;;;5039491;28;20083;-72
2022/05/20 02:44:41;;;;;;;9.30;6.78;;;12.90;99.90;;;;;;5038860;28;20775;-71
2022/05/20 02:47:07;;;;;;;7.53;5.47;;;12.90;99.90;;;;;;5039275;28;20087;-72
2022/05/20 02:49:33;;;;;;;8.00;6.65;;;12.80;99.90;;;;;;5039070;28;20131;-72
2022/05/20 02:51:59;;;;;;;8.27;6.28;;;12.80;99.90;;;;;;5039464;28;20059;-72
2022/05/20 02:54:24;;;;;;;5.88;4.55;;;12.70;99.90;;;;;;5039253;28;20053;-72
2022/05/20 02:56:50;;;;;;;7.03;5.43;;;12.70;99.90;;;;;;5039021;28;20819;-72
2022/05/20 03:04:47;;;;;;;5.60;4.70;;;12.50;99.90;;;;;;5038901;28;20064;-72
2022/05/20 03:07:16;;;;;;;5.53;4.65;;;12.50;99.90;;;;;;5039418;28;20390;-72
2022/05/20 03:09:41;;;;;;;7.32;5.15;;;12.40;99.90;;;;;;5037381;28;20504;-72
2022/05/20 03:12:07;;;;;;;8.85;6.22;;;12.40;99.90;;;;;;5024475;28;20040;-71
2022/05/20 03:14:33;;;;;;;8.40;4.85;;;12.40;99.90;;;;;;5037012;28;20072;-71
2022/05/20 03:17:00;;;;;;;6.60;5.50;;;12.40;99.90;;;;;;5038463;28;20258;-71
2022/05/20 03:19:30;;;;;;;4.75;4.35;;;12.30;99.90;;;;;;5039241;28;20045;-71
2022/05/20 03:21:59;;;;;;;6.85;5.18;;;12.30;99.90;;;;;;5036718;28;20045;-71
2022/05/20 03:24:26;;;;;;;5.47;4.57;;;12.30;99.90;;;;;;5036074;28;20079;-72
2022/05/20 03:26:52;;;;;;;5.65;4.45;;;12.20;99.90;;;;;;5036518;28;20072;-71
2022/05/20 03:29:18;;;;;;;5.20;4.40;;;12.20;99.90;;;;;;5036381;28;20738;-71
2022/05/20 03:31:44;;;;;;;5.85;4.72;;;12.10;99.90;;;;;;5036334;28;20080;-71
2022/05/20 03:34:10;;;;;;;7.72;6.28;;;12.10;99.90;;;;;;5036842;28;20051;-71
2022/05/20 03:36:43;;;;;;;6.75;5.25;;;12.10;99.90;;;;;;5036539;28;20067;-71
2022/05/20 03:39:10;;;;;;;6.20;5.60;;;12.10;99.90;;;;;;5036661;28;20040;-72
2022/05/20 03:41:39;;;;;;;6.00;4.72;;;12.10;99.90;;;;;;5037136;28;20254;-72
2022/05/20 03:44:08;;;;;;;7.78;5.45;;;12.10;99.90;;;;;;5040449;28;20132;-71
2022/05/20 03:46:42;;;;;;;6.03;5.40;;;12.00;99.90;;;;;;5040817;28;20675;-72
2022/05/20 03:49:09;;;;;;;6.82;5.28;;;11.90;99.90;;;;;;5038250;28;20071;-71
2022/05/20 03:51:35;;;;;;;6.57;5.30;;;11.90;99.90;;;;;;5040066;28;20270;-71
2022/05/20 03:54:01;;;;;;;8.75;5.85;;;11.80;99.90;;;;;;5040628;28;20056;-72
2022/05/20 03:56:27;;;;;;;11.27;7.20;;;11.80;99.90;;;;;;5040161;28;20119;-71
2022/05/20 03:58:52;;;;;;;7.28;6.03;;;11.80;99.90;;;;;;5006652;28;20495;-71
2022/05/20 04:04:03;;;;;;;8.30;6.32;;;11.80;99.90;;;;;;5040256;28;20087;-71
2022/05/20 04:06:29;;;;;;;8.27;6.97;;;11.70;99.90;;;;;;5040590;28;20068;-71
2022/05/20 04:08:55;;;;;;;8.57;6.78;;;11.80;99.90;;;;;;5040545;28;20163;-71
2022/05/20 04:11:21;;;;;;;8.65;7.28;;;11.80;99.90;;;;;;5040108;28;20132;-72
2022/05/20 04:13:46;;;;;;;7.00;6.30;;;11.90;99.90;;;;;;5039563;28;20052;-71
2022/05/20 04:16:14;;;;;;;7.55;6.75;;;11.90;99.90;;;;;;5040439;28;20224;-71
2022/05/20 04:18:43;;;;;;;7.68;5.93;;;12.00;99.90;;;;;;5039251;28;20102;-71
2022/05/20 04:21:14;;;;;;;7.30;6.70;;;12.00;99.90;;;;;;5036160;28;20052;-71
2022/05/20 04:23:41;;;;;;;11.77;7.32;;;12.10;99.90;;;;;;5039304;28;20053;-71
2022/05/20 04:26:06;;;;;;;12.02;8.18;;;12.10;99.90;;;;;;5039071;28;20053;-71
2022/05/20 04:28:33;;;;;;;8.88;7.97;;;12.10;99.90;;;;;;5039068;28;20055;-71
2022/05/20 04:31:01;;;;;;;9.55;8.05;;;12.20;99.90;;;;;;5038295;28;20064;-71
2022/05/20 04:33:27;;;;;;;10.10;8.13;;;12.20;99.90;;;;;;5039045;28;20136;-72
2022/05/20 04:35:53;;;;;;;10.50;8.40;;;12.30;99.90;;;;;;5039180;28;20163;-72
2022/05/20 04:38:20;;;;;;;9.38;7.78;;;12.30;99.90;;;;;;5038948;28;20040;-71
2022/05/20 04:46:56;;;;;;;14.85;10.00;;;12.30;99.90;;;;;;5038941;28;20044;-71
2022/05/20 04:49:09;;;;;;;15.85;10.10;;;12.40;99.90;;;;;;5039674;28;20064;-72
2022/05/20 04:51:35;;;;;;;13.38;9.77;;;12.50;99.90;;;;;;5038155;28;20052;-72
2022/05/20 04:56:45;;;;;;;15.02;9.55;;;12.60;99.90;;;;;;5039676;28;20092;-71
2022/05/20 04:59:12;;;;;;;11.63;8.98;;;12.60;99.90;;;;;;5039366;28;20496;-71
2022/05/20 05:01:39;;;;;;;9.85;7.25;;;12.70;99.90;;;;;;5038978;28;20056;-71
2022/05/20 05:04:06;;;;;;;12.63;9.88;;;12.70;99.90;;;;;;5038910;28;20623;-71
2022/05/20 05:06:31;;;;;;;16.73;10.75;;;12.70;99.90;;;;;;5040567;28;20090;-71
2022/05/20 05:08:57;;;;;;;13.23;9.38;;;12.80;99.90;;;;;;5041216;28;20053;-71
2022/05/20 05:11:23;;;;;;;14.80;9.18;;;12.80;99.90;;;;;;5021372;28;20052;-71
2022/05/20 05:13:48;;;;;;;11.27;8.98;;;12.90;99.90;;;;;;5038619;28;20056;-71
2022/05/20 05:16:14;;;;;;;20.30;12.93;;;12.90;99.90;;;;;;5038318;28;20768;-71
2022/05/20 05:18:40;;;;;;;11.55;9.13;;;13.00;99.90;;;;;;5037879;28;20048;-71
2022/05/20 05:21:05;;;;;;;11.48;8.88;;;13.10;99.90;;;;;;5037397;28;20045;-71
2022/05/20 05:23:31;;;;;;;14.27;10.10;;;13.10;99.90;;;;;;5037983;28;20053;-72
2022/05/20 05:25:57;;;;;;;11.90;9.18;;;13.20;99.90;;;;;;5037323;28;20978;-72
2022/05/20 05:28:23;;;;;;;16.95;10.88;;;13.30;99.90;;;;;;5037885;28;20140;-72
2022/05/20 05:30:50;;;;;;;18.33;12.38;;;13.40;99.90;;;;;;5019784;28;20056;-71
2022/05/20 05:33:18;;;;;;;15.05;10.52;;;13.50;99.90;;;;;;5037352;28;20048;-72
2022/05/20 05:35:44;;;;;;;12.25;10.45;;;13.60;99.90;;;;;;5037470;28;20534;-72
2022/05/20 05:38:09;;;;;;;12.60;11.27;;;13.60;99.90;;;;;;5037102;28;20481;-72
2022/05/20 05:40:36;;;;;;;16.13;10.23;;;13.70;99.90;;;;;;5037698;28;20052;-72
2022/05/20 05:43:03;;;;;;;14.18;10.25;;;13.80;99.90;;;;;;5037220;28;20053;-72
2022/05/20 05:45:30;;;;;;;11.68;9.55;;;13.90;99.90;;;;;;5037091;28;20053;-71
2022/05/20 05:47:59;;;;;;;13.32;9.02;;;14.00;99.90;;;;;;5037253;28;20912;-72
2022/05/20 05:50:27;;;;;;;13.88;10.25;;;14.00;99.90;;;;;;5037377;28;20049;-72
2022/05/20 05:52:59;;;;;;;12.50;9.88;;;14.30;99.90;;;;;;5035594;28;20041;-72
2022/05/20 05:55:27;;;;;;;16.08;10.07;;;14.20;99.90;;;;;;5035728;28;20115;-72
2022/05/20 05:57:53;;;;;;;11.95;8.80;;;14.30;99.90;;;;;;5017622;28;20548;-72
2022/05/20 06:00:19;;;;;;;12.93;10.52;;;14.30;99.90;;;;;;5035698;28;20052;-71
2022/05/20 06:02:44;;;;;;;15.38;9.02;;;14.40;99.90;;;;;;5037358;28;20053;-72
2022/05/20 06:05:10;;;;;;;12.00;9.50;;;14.50;99.90;;;;;;5035843;28;20076;-72
2022/05/20 06:07:36;;;;;;;8.90;7.95;;;14.50;99.90;;;;;;5036907;28;20594;-72
2022/05/20 06:10:02;;;;;;;12.05;9.30;;;14.70;99.90;;;;;;5037092;28;20044;-72
2022/05/20 06:12:28;;;;;;;12.95;8.48;;;14.80;99.90;;;;;;5036883;28;20766;-72
2022/05/20 06:14:53;;;;;;;16.20;9.85;;;14.90;99.90;;;;;;5036888;28;20152;-72
2022/05/20 06:17:19;;;;;;;12.32;7.68;;;15.10;99.90;;;;;;5036240;28;20044;-72
2022/05/20 06:19:45;;;;;;;10.43;6.85;;;15.20;99.90;;;;;;5036514;28;20103;-73
2022/05/20 06:22:10;;;;;;;10.05;6.78;;;15.50;99.90;;;;;;5036309;28;20774;-73
2022/05/20 06:24:36;;;;;;;9.18;6.05;;;15.80;99.90;;;;;;5036801;28;20118;-73
2022/05/20 06:27:03;;;;;;;10.52;5.57;;;16.20;99.90;;;;;;5036771;28;20065;-71
2022/05/20 06:29:28;;;;;;;7.38;6.10;;;17.00;99.90;;;;;;5036989;28;20144;-73
2022/05/20 06:31:54;;;;;;;8.73;6.75;;;17.90;99.90;;;;;;5017395;28;20161;-73
2022/05/20 06:34:20;;;;;;;8.57;6.47;;;18.00;99.90;;;;;;5035228;28;20091;-74
2022/05/20 06:42:15;;;;;;;6.80;4.75;;;20.80;99.90;;;;;;5038987;28;20091;-73
2022/05/20 06:44:41;;;;;;;6.72;5.03;;;21.00;99.90;;;;;;5039552;28;20106;-70
2022/05/20 06:47:07;;;;;;;9.45;5.03;;;21.50;99.90;;;;;;5037660;28;20049;-72
2022/05/20 06:49:33;;;;;;;10.43;5.80;;;21.90;99.90;;;;;;5037763;28;20048;-71
2022/05/20 06:52:00;;;;;;;7.93;4.10;;;22.30;99.90;;;;;;5037199;28;20045;-72
2022/05/20 06:54:27;;;;;;;8.05;4.68;;;22.90;99.90;;;;;;5037857;28;20045;-73
2022/05/20 06:56:52;;;;;;;10.23;5.03;;;22.70;99.90;;;;;;5037439;28;20052;-72
2022/05/20 06:59:18;;;;;;;7.97;3.90;;;22.90;99.90;;;;;;5037698;28;20045;-71
2022/05/20 07:01:44;;;;;;;6.13;4.65;;;23.00;99.90;;;;;;5037957;28;20052;-72
2022/05/20 07:04:10;;;;;;;5.53;4.65;;;22.90;99.90;;;;;;5037770;28;20048;-71
2022/05/20 07:06:36;;;;;;;8.05;4.65;;;22.10;99.90;;;;;;5037620;28;20045;-72
2022/05/20 07:09:03;;;;;;;6.53;4.72;;;21.70;99.90;;;;;;5038131;28;20913;-72
2022/05/20 07:11:29;;;;;;;7.32;4.53;;;21.70;99.90;;;;;;5000639;28;20045;-72
2022/05/20 07:13:56;;;;;;;8.68;5.20;;;21.90;99.90;;;;;;5037906;28;20579;-73
2022/05/20 07:16:23;;;;;;;8.38;4.38;;;22.00;99.90;;;;;;5037546;28;20053;-72
2022/05/20 07:18:49;;;;;;;6.70;4.45;;;21.90;99.90;;;;;;5038804;28;20053;-71
2022/05/20 07:21:15;;;;;;;7.68;3.50;;;22.00;99.90;;;;;;5036913;28;20158;-71
2022/05/20 07:23:41;;;;;;;7.00;3.85;;;22.30;99.90;;;;;;5037175;28;20045;-71
2022/05/20 07:26:08;;;;;;;6.20;3.50;;;22.40;99.90;;;;;;5034899;28;20072;-72
2022/05/20 07:28:35;;;;;;;6.40;4.45;;;22.60;99.90;;;;;;5034595;28;20720;-72
2022/05/20 07:31:02;;;;;;;7.50;4.75;;;22.50;99.90;;;;;;5034975;28;20057;-72
2022/05/20 07:33:28;;;;;;;7.05;4.97;;;22.30;99.90;;;;;;5034746;28;20049;-72
2022/05/20 07:35:55;;;;;;;5.45;4.60;;;22.40;99.90;;;;;;5035159;28;20121;-72
2022/05/20 07:38:21;;;;;;;4.68;3.80;;;22.30;99.90;;;;;;5035973;28;20056;-72
2022/05/20 07:40:47;;;;;;;6.55;3.60;;;22.40;95.70;;;;;;5035385;28;20049;-72
2022/05/20 07:43:14;;;;;;;5.43;3.47;;;22.30;99.90;;;;;;5035596;28;20075;-72
2022/05/20 07:45:40;;;;;;;3.92;3.60;;;22.40;99.90;;;;;;5017357;28;20052;-72
2022/05/20 07:48:06;;;;;;;4.70;3.47;;;22.60;99.90;;;;;;5035793;28;20045;-71
2022/05/20 07:50:39;;;;;;;5.68;4.00;;;23.30;99.60;;;;;;5035596;28;20091;-72
2022/05/20 07:53:20;;;;;;;;;;;23.80;96.70;;;;;;5036949;28;20045;-72
2022/05/20 07:55:55;;;;;;;4.32;3.25;;;23.30;93.10;;;;;;5035712;28;20011;-72
2022/05/20 07:58:32;;;;;;;4.55;3.55;;;22.90;96.30;;;;;;5036093;28;20076;-72
2022/05/20 08:00:59;;;;;;;4.05;3.20;;;23.00;97.50;;;;;;5033812;28;20734;-72
2022/05/20 08:06:13;;;;;;;4.82;3.47;;;21.60;98.10;;;;;;5036471;28;20496;-72
2022/05/20 08:08:40;;;;;;;4.70;3.05;;;20.80;98.70;;;;;;5018831;28;20045;-72
2022/05/20 08:11:05;;;;;;;4.88;3.55;;;20.50;99.00;;;;;;5018046;28;20120;-72
2022/05/20 08:13:31;;;;;;;8.25;3.67;;;20.40;99.50;;;;;;5036749;28;20165;-72
2022/05/20 08:15:57;;;;;;;5.03;3.17;;;20.50;99.30;;;;;;5016000;28;20087;-72
2022/05/20 08:18:22;;;;;;;5.00;3.15;;;20.40;98.90;;;;;;5036236;28;20323;-71
2022/05/20 08:20:48;;;;;;;4.57;3.00;;;20.60;98.90;;;;;;5035268;28;20048;-72
2022/05/20 08:23:14;;;;;;;6.03;3.42;;;20.90;99.00;;;;;;5035406;28;20045;-72
2022/05/20 08:25:40;;;;;;;4.03;3.25;;;21.00;98.40;;;;;;5034917;28;20800;-72
2022/05/20 08:28:06;;;;;;;5.45;2.55;;;21.20;97.90;;;;;;5036091;28;20045;-72
2022/05/20 08:30:32;;;;;;;5.45;3.53;;;21.20;98.10;;;;;;5039788;28;20045;-75
2022/05/20 08:32:57;;;;;;;5.13;2.72;;;21.20;97.80;;;;;;5039271;28;20037;-72
2022/05/20 08:35:26;;;;;;;6.45;2.72;;;21.50;97.50;;;;;;5040424;28;20049;-72
2022/05/20 08:37:52;;;;;;;4.35;2.55;;;21.60;94.40;;;;;;5038726;28;20068;-72
2022/05/20 08:40:24;;;;;;;5.90;3.03;;;21.40;97.10;;;;;;5040330;28;20045;-72
2022/05/20 08:42:53;;;;;;;4.80;2.92;;;21.30;96.10;;;;;;5040706;28;20087;-72
2022/05/20 08:45:22;;;;;;;2.95;2.20;;;21.10;97.10;;;;;;5040175;28;20131;-72
2022/05/20 08:47:50;;;;;;;3.67;2.53;;;21.20;98.00;;;;;;5040510;28;20053;-72
2022/05/20 08:50:26;;;;;;;4.28;2.55;;;21.20;97.60;;;;;;5040245;28;20148;-71
2022/05/20 08:52:55;;;;;;;6.28;2.47;;;21.10;97.90;;;;;;5040790;28;20051;-72
2022/05/20 08:55:22;;;;;;;3.67;2.75;;;21.20;97.10;;;;;;5040615;28;20049;-71
2022/05/20 08:58:00;;;;;;;4.95;2.97;;;21.90;97.00;;;;;;5040812;28;20094;-72
2022/05/20 09:00:27;;;;;;;4.28;3.13;;;22.80;95.70;;;;;;5040215;28;20396;-72
2022/05/20 09:02:52;;;;;;;3.85;3.53;;;22.70;96.00;;;;;;5040148;28;20045;-72
2022/05/20 09:05:30;;;;;;;6.55;3.92;;;23.00;96.10;;;;;;5039686;28;20052;-73
2022/05/20 09:08:05;;;;;;;5.50;3.67;;;22.90;95.70;;;;;;5040725;28;20041;-72
2022/05/20 09:10:43;;;;;;;4.68;2.85;;;22.70;95.40;;;;;;5023433;28;20049;-71
2022/05/20 09:13:19;;;;;;;4.13;2.95;;;22.60;96.10;;;;;;5041171;28;20950;-71
2022/05/20 09:16:04;;;;;;;5.90;3.00;;;22.70;96.00;;;;;;5040755;28;20045;-72
2022/05/20 09:18:39;;;;;;;5.50;3.50;;;22.60;94.00;;;;;;5040320;28;20127;-71
2022/05/20 09:21:07;;;;;;;6.90;3.53;;;22.70;95.10;;;;;;5040376;28;20132;-72
2022/05/20 09:23:49;;;;;;;7.18;4.10;;;22.80;95.60;;;;;;5041028;28;20040;-72
2022/05/20 09:26:23;;;;;;;4.90;3.17;;;23.00;93.70;;;;;;5040514;28;20053;-72
2022/05/20 09:29:03;;;;;;;6.18;3.60;;;23.30;95.10;;;;;;5040641;28;20060;-72
2022/05/20 09:31:42;;;;;;;8.98;4.43;;;23.70;94.60;;;;;;5040585;28;20048;-72
2022/05/20 09:34:32;;;;;;;4.60;3.78;;;23.90;93.80;;;;;;5022090;28;20072;-72
2022/05/20 09:37:05;;;;;;;5.72;3.72;;;24.10;93.70;;;;;;5022156;28;20057;-72
2022/05/20 09:39:37;;;;;;;3.80;3.40;;;24.00;92.50;;;;;;5039690;28;20048;-72
2022/05/20 09:42:19;;;;;;;8.55;3.72;;;23.70;93.10;;;;;;5040054;28;20057;-72
2022/05/20 09:44:47;;;;;;;6.10;4.25;;;23.50;92.20;;;;;;5022713;28;20114;-72
2022/05/20 09:47:35;;;;;;;7.53;3.70;;;23.20;93.40;;;;;;5040032;28;20044;-72
2022/05/20 09:50:21;;;;;;;7.50;4.63;;;23.00;94.70;;;;;;5040671;28;20071;-72
2022/05/20 09:52:58;;;;;;;7.00;4.38;;;22.50;94.80;;;;;;5022534;28;20065;-72
2022/05/20 09:55:25;;;;;;;9.45;4.25;;;22.50;94.50;;;;;;5022111;28;20943;-73
2022/05/20 09:57:55;;;;;;;4.57;3.92;;;22.30;94.70;;;;;;5040544;28;20122;-72
2022/05/20 10:00:20;;;;;;;5.57;4.35;;;22.20;94.20;;;;;;5040214;28;20045;-71
2022/05/20 10:02:52;;;;;;;6.97;5.30;;;21.70;94.80;;;;;;5040588;28;20101;-72
2022/05/20 10:05:37;;;;;;;4.95;3.80;;;21.70;94.90;;;;;;5040116;28;20865;-73
2022/05/20 10:08:13;;;;;;;6.88;4.10;;;21.70;94.80;;;;;;5039789;28;20052;-72
2022/05/20 10:10:51;;;;;;;4.72;3.78;;;21.70;94.30;;;;;;5021259;28;20048;-71
2022/05/20 10:13:36;;;;;;;7.88;4.43;;;21.60;94.40;;;;;;5040621;28;20049;-72
2022/05/20 10:16:13;;;;;;;6.53;3.95;;;21.60;94.30;;;;;;5039870;28;20132;-72
2022/05/20 10:19:07;;;;;;;6.18;4.22;;;21.60;94.30;;;;;;5040043;28;20045;-72
2022/05/20 10:21:45;;;;;;;4.80;3.72;;;21.60;93.40;;;;;;5029854;28;20096;-72
2022/05/20 10:24:41;;;;;;;6.40;4.32;;;21.40;94.10;;;;;;5039434;28;20488;-72
2022/05/20 10:27:38;;;;;;;4.65;3.45;;;21.60;93.60;;;;;;5039235;28;20065;-72
2022/05/20 10:33:08;;;;;;;6.10;4.50;;;21.70;94.30;;;;;;5039498;28;20122;-72
2022/05/20 10:35:42;;;;;;;6.35;4.30;;;21.70;93.90;;;;;;5039599;28;20048;-72
2022/05/20 10:38:22;;;;;;;7.05;5.13;;;21.80;94.40;;;;;;5019636;28;20049;-72
2022/05/20 10:41:30;;;;;;;5.47;4.35;;;21.80;93.50;;;;;;5034333;28;20095;-71
2022/05/20 10:50:23;;;;;;;8.85;4.82;;;21.80;93.70;;;;;;5039180;28;20134;-72
2022/05/20 10:53:10;;;;;;;7.88;4.47;;;21.80;92.90;;;;;;5039125;28;20048;-72
2022/05/20 10:56:07;;;;;;;5.38;4.80;;;21.80;93.30;;;;;;5039645;28;20052;-72
2022/05/20 10:58:51;;;;;;;6.65;5.15;;;21.90;93.30;;;;;;5038938;28;20518;-72
2022/05/20 11:01:38;;;;;;;5.68;5.07;;;22.00;93.10;;;;;;5039341;28;20045;-73
2022/05/20 11:04:31;;;;;;;7.82;5.45;;;22.00;91.40;;;;;;5039182;28;20531;-72
2022/05/20 11:07:06;;;;;;;4.63;3.85;;;22.10;91.90;;;;;;5039423;28;20977;-71
2022/05/20 11:10:10;;;;;;;7.70;4.90;;;22.00;92.40;;;;;;5039288;28;20075;-72
2022/05/20 11:13:00;;;;;;;4.90;4.45;;;21.90;91.90;;;;;;5024057;28;20848;-73
2022/05/20 11:15:37;;;;;;;6.40;4.03;;;21.70;91.30;;;;;;5038987;28;20091;-72
2022/05/20 11:18:25;;;;;;;4.30;3.90;;;21.80;92.50;;;;;;5039349;28;20088;-71
2022/05/20 11:21:10;;;;;;;4.43;3.90;;;22.00;91.80;;;;;;5019581;28;20957;-72
2022/05/20 11:23:38;;;;;;;4.70;4.03;;;21.90;90.90;;;;;;5039030;28;20913;-71
2022/05/20 11:26:21;;;;;;;5.35;4.32;;;22.00;91.50;;;;;;5039060;28;20169;-71
2022/05/20 11:28:56;;;;;;;5.18;4.28;;;22.00;91.50;;;;;;5039262;28;20092;-71
2022/05/20 11:31:43;;;;;;;5.75;5.18;;;21.90;91.80;;;;;;5039608;28;20055;-72
2022/05/20 11:34:28;;;;;;;4.53;3.97;;;21.70;91.40;;;;;;5039376;28;20079;-72
2022/05/20 11:37:13;;;;;;;6.93;5.00;;;21.80;92.10;;;;;;5038885;28;20084;-72
2022/05/20 11:40:09;;;;;;;5.75;5.03;;;21.90;91.80;;;;;;5020585;28;20127;-71
2022/05/20 11:43:01;;;;;;;4.90;4.40;;;21.70;91.40;;;;;;5038565;28;20053;-71
2022/05/20 11:45:56;;;;;;;7.70;5.35;;;21.90;91.90;;;;;;5038326;28;20053;-71
2022/05/20 11:48:53;;;;;;;3.92;3.50;;;22.10;90.80;;;;;;5037757;28;20056;-71
2022/05/20 11:51:37;;;;;;;6.22;4.00;;;22.20;90.90;;;;;;5038402;28;20045;-71
2022/05/20 11:54:39;;;;;;;5.35;4.47;;;22.20;91.00;;;;;;5038434;28;20352;-72
2022/05/20 11:57:10;;;;;;;5.20;4.32;;;22.30;91.20;;;;;;4919292;29;20836;-71
2022/05/20 11:59:56;;;;;;;5.07;4.38;;;22.40;91.20;;;;;;5000836;28;20164;-71
2022/05/20 12:02:24;;;;;;;4.15;3.75;;;22.50;89.40;;;;;;5016448;28;20057;-72
2022/05/20 12:04:50;;;;;;;4.53;3.17;;;22.50;90.60;;;;;;5019653;28;20080;-71
2022/05/20 12:07:23;;;;;;;8.65;3.60;;;22.60;89.30;;;;;;5025632;28;20140;-71
2022/05/20 12:09:57;;;;;;;4.05;3.28;;;22.30;85.20;;;;;;5038509;28;20157;-72
2022/05/20 12:12:27;;;;;;;4.07;3.67;;;22.10;84.80;;;;;;5039715;28;20053;-71
2022/05/20 12:14:56;;;;;;;5.55;3.38;;;21.90;88.00;;;;;;5039398;28;20048;-69
2022/05/20 12:17:40;;;;;;;5.47;4.50;;;21.80;88.20;;;;;;5039158;28;20091;-72
2022/05/20 12:26:21;;;;;;;2.70;2.47;;;22.00;85.90;;;;;;5029433;28;20095;-72
2022/05/20 12:28:46;;;;;;;3.50;3.20;;;22.10;84.80;;;;;;5032804;28;20052;-72
2022/05/20 12:31:12;;;;;;;4.53;3.13;;;22.20;85.90;;;;;;5034094;28;20099;-71
2022/05/20 12:34:05;;;;;;;5.88;4.50;;;22.30;87.50;;;;;;5035059;28;20087;-72
2022/05/20 12:36:35;;;;;;;7.28;6.57;;;22.40;86.00;;;;;;5033415;28;20150;-72
2022/05/20 12:39:07;;;;;;;9.45;6.05;;;22.40;88.40;;;;;;5031735;28;20144;-72
2022/05/20 12:41:53;;;;;;;9.93;6.15;;;22.50;89.30;;;;;;5033634;28;20052;-72
2022/05/20 12:44:22;;;;;;;6.60;5.72;;;22.50;88.40;;;;;;5033831;28;20095;-72
2022/05/20 12:47:08;;;;;;;6.03;4.80;;;22.50;87.90;;;;;;5004196;28;20678;-72
2022/05/20 12:50:03;;;;;;;7.13;6.13;;;22.60;87.00;;;;;;5034054;28;20519;-72
2022/05/20 12:52:34;;;;;;;8.18;4.82;;;22.50;88.40;;;;;;4992242;28;20792;-72
2022/05/20 12:55:04;;;;;;;4.35;3.92;;;22.50;88.20;;;;;;5030783;28;20049;-72
2022/05/20 12:57:34;;;;;;;4.80;4.40;;;22.40;88.20;;;;;;5010945;28;20133;-72
2022/05/20 13:00:08;;;;;;;4.35;3.95;;;22.40;85.40;;;;;;5016133;28;20119;-72
2022/05/20 13:02:37;;;;;;;5.85;4.75;;;22.20;84.30;;;;;;5030756;28;20093;-72
2022/05/20 13:05:26;;;;;;;4.10;3.70;;;22.20;84.90;;;;;;5030810;28;20627;-72
2022/05/20 13:07:54;;;;;;;4.70;4.30;;;22.10;83.90;;;;;;5032229;28;20049;-72
2022/05/20 13:10:41;;;;;;;10.10;6.25;;;22.00;84.60;;;;;;5029762;28;20048;-72
2022/05/20 13:13:19;;;;;;;7.63;5.57;;;21.90;87.20;;;;;;5033227;28;20041;-71
2022/05/20 13:15:46;;;;;;;7.95;6.22;;;21.80;88.60;;;;;;5033430;28;20056;-72
2022/05/20 13:18:27;;;;;;;8.73;6.30;;;21.80;89.00;;;;;;5030877;28;20159;-71
2022/05/20 13:20:56;;;;;;;5.45;4.95;;;21.70;88.90;;;;;;5031252;28;20072;-72
2022/05/20 13:23:30;;;;;;;4.93;4.40;;;21.60;89.10;;;;;;5033741;28;20080;-71
2022/05/20 13:25:56;;;;;;;6.05;5.40;;;21.50;89.10;;;;;;5035399;28;20610;-72
2022/05/20 13:28:36;;;;;;;6.63;5.25;;;21.40;89.90;;;;;;5034890;28;20056;-72
2022/05/20 13:31:07;;;;;;;7.75;5.45;;;21.20;90.20;;;;;;5035319;28;20045;-72
2022/05/20 13:33:36;;;;;;;8.13;5.43;;;21.20;90.70;;;;;;5035618;28;20044;-72
2022/05/20 13:36:04;;;;;;;6.38;4.55;;;21.10;90.70;;;;;;5035676;28;20041;-73
2022/05/20 13:38:34;;;;;;;6.13;4.93;;;20.90;90.50;;;;;;5035208;28;20764;-72
2022/05/20 13:41:00;;;;;;;7.10;5.38;;;20.80;90.70;;;;;;5036117;28;20594;-72
2022/05/20 13:43:33;;;;;;;5.35;4.72;;;20.60;90.80;;;;;;5019521;28;20048;-73
2022/05/20 13:51:59;;;;;;;6.97;4.55;;;20.20;91.40;;;;;;5036547;28;20067;-72
2022/05/20 13:54:50;;;;;;;4.80;4.35;;;20.10;91.50;;;;;;4999823;28;20069;-72
2022/05/20 13:57:33;;;;;;;5.95;4.47;;;20.00;92.00;;;;;;5037441;28;20060;-72